Terminal Aerodrome Forecast
Issued by NWS Cleveland, OH

Home | Current Version | Previous Version | Graphics & Text | Print | Product List | Glossary On
Versions: 1 2 3 4 5 6 7 8 9 10 11 12 13 14 15 16 17 18 19 20 21 22 23 24 25 26 27 28 29 30 31 32 33
000
FTUS41 KCLE 250500
TAFCLE
TAF
KCLE 250530Z 2506/2612 14006KT P6SM FEW040 SCT250
     FM251400 17006KT P6SM SCT035
     FM252000 04008KT P6SM FEW040 SCT250
     FM260000 14005KT P6SM FEW100 SCT250
     FM260500 18005KT P6SM FEW100 SCT250=

USA.gov is the U.S. government's official web portal to all federal, state and local government web resources and services.